createdAt,value
2022-10-14T05:30:59.596Z,13.20
2022-10-14T05:34:01.333Z,13.10
2022-10-14T05:37:03.442Z,13.20
2022-10-14T05:40:05.646Z,13.20
2022-10-14T05:43:07.579Z,13.40
2022-10-14T05:46:09.278Z,13.50
2022-10-14T05:49:12.429Z,13.50
2022-10-14T05:52:15.406Z,13.50
2022-10-14T05:55:17.507Z,13.50
2022-10-14T05:58:19.260Z,13.50
2022-10-14T06:01:22.384Z,13.50
2022-10-14T06:04:25.478Z,13.70
2022-10-14T06:07:28.191Z,13.70
2022-10-14T06:10:30.418Z,13.70
2022-10-14T06:49:38.146Z,13.10
2022-10-14T06:52:40.738Z,13.40
2022-10-14T06:55:42.515Z,13.70
2022-10-14T06:58:45.873Z,14.00
2022-10-14T07:01:49.370Z,14.20
2022-10-14T07:04:52.206Z,14.20
2022-10-14T07:11:02.263Z,14.20
2022-10-14T07:14:05.125Z,14.30
2022-10-14T07:17:09.647Z,14.30
2022-10-14T07:20:12.903Z,14.30
2022-10-14T07:23:16.015Z,14.30
2022-10-14T07:26:18.987Z,14.50
2022-10-14T07:29:21.033Z,14.50
2022-10-14T07:32:23.397Z,14.70
2022-10-14T07:35:26.987Z,15.00
2022-10-14T07:38:28.970Z,15.30
2022-10-14T07:41:31.097Z,15.50
2022-10-14T07:44:34.074Z,15.40
2022-10-14T07:47:36.080Z,15.30
2022-10-14T07:50:38.144Z,15.20
2022-10-14T07:53:40.095Z,15.30
2022-10-14T07:56:44.545Z,15.30
2022-10-14T07:59:46.817Z,15.40
2022-10-14T08:02:49.216Z,15.30
2022-10-14T08:05:58.512Z,15.20
2022-10-14T08:09:01.637Z,15.20
2022-10-14T08:12:04.961Z,15.20
2022-10-14T08:15:08.241Z,15.20
2022-10-14T08:18:12.257Z,15.30
2022-10-14T08:21:15.188Z,15.40
2022-10-14T08:24:17.232Z,15.30
2022-10-14T08:27:21.605Z,15.50
2022-10-14T08:30:24.567Z,15.80
2022-10-14T08:33:26.562Z,15.70
2022-10-14T08:36:29.276Z,15.60
2022-10-14T08:39:32.622Z,15.40
2022-10-14T08:43:02.422Z,15.40
2022-10-14T08:46:31.879Z,15.50
2022-10-14T08:49:59.289Z,15.70
2022-10-14T08:53:24.420Z,15.80
2022-10-14T08:56:27.404Z,16.10
2022-10-14T08:59:29.718Z,16.00
2022-10-14T09:02:46.072Z,16.00
2022-10-14T09:05:58.871Z,15.90
2022-10-14T09:09:12.425Z,15.80
2022-10-14T09:12:21.362Z,15.80
2022-10-14T09:15:33.127Z,15.90
2022-10-14T09:18:40.306Z,15.90
2022-10-14T09:21:53.684Z,15.90
2022-10-14T09:24:57.565Z,16.00
2022-10-14T09:27:59.340Z,16.30
2022-10-14T09:31:01.369Z,16.40
2022-10-14T09:34:03.291Z,16.40
2022-10-14T09:37:32.702Z,16.70
2022-10-14T09:40:37.870Z,16.80
2022-10-14T09:44:00.043Z,17.10
2022-10-14T09:47:09.377Z,17.30
2022-10-14T09:50:44.943Z,17.50
2022-10-14T09:53:53.637Z,17.80
2022-10-14T09:57:01.198Z,17.80
2022-10-14T10:00:06.902Z,17.80
2022-10-14T10:03:26.702Z,18.00
2022-10-14T10:06:29.443Z,18.40
2022-10-14T10:09:33.864Z,18.10
2022-10-14T10:12:37.171Z,18.00
2022-10-14T10:15:41.753Z,18.20
2022-10-14T10:18:43.919Z,18.30
2022-10-14T10:21:47.989Z,18.30
2022-10-14T10:24:53.464Z,18.40
2022-10-14T10:27:59.913Z,18.20
2022-10-14T10:31:22.321Z,18.30
2022-10-14T10:34:55.193Z,18.00
2022-10-14T10:38:22.185Z,18.00
2022-10-14T10:41:53.593Z,17.90
2022-10-14T10:45:23.353Z,17.70
2022-10-14T10:48:43.460Z,17.50
2022-10-14T10:52:08.883Z,17.30
2022-10-14T10:55:36.954Z,17.30
2022-10-14T10:59:08.229Z,17.40
2022-10-14T11:02:33.321Z,17.40
2022-10-14T11:05:46.189Z,17.40
2022-10-14T11:09:21.300Z,17.20
2022-10-14T11:12:34.666Z,16.70
2022-10-14T11:15:59.957Z,16.40
2022-10-14T11:19:12.358Z,16.60
2022-10-14T11:22:56.325Z,16.70
2022-10-14T11:26:22.526Z,16.80
2022-10-14T11:30:06.087Z,16.90
2022-10-14T11:33:47.623Z,17.20
2022-10-14T11:37:19.950Z,17.40
2022-10-14T11:40:29.224Z,17.70
2022-10-14T11:43:58.954Z,18.00
2022-10-14T11:47:05.793Z,18.30
2022-10-14T11:50:29.067Z,18.60
2022-10-14T11:53:55.636Z,18.70
2022-10-14T11:57:28.173Z,18.90
2022-10-14T12:00:33.799Z,19.10
2022-10-14T12:04:11.555Z,18.60
2022-10-14T12:07:22.716Z,18.90
2022-10-14T12:10:31.283Z,19.40
2022-10-14T12:13:42.195Z,19.70
2022-10-14T12:16:46.272Z,19.80
2022-10-14T12:19:48.421Z,19.80
2022-10-14T12:22:51.648Z,19.90
2022-10-14T12:26:04.090Z,19.50
2022-10-14T12:29:06.435Z,19.70
2022-10-14T12:32:21.873Z,20.10
2022-10-14T12:35:44.776Z,20.20
2022-10-14T12:39:22.249Z,20.40
2022-10-14T12:42:24.360Z,20.10
2022-10-14T12:45:29.548Z,19.70
2022-10-14T12:48:34.287Z,19.40
2022-10-14T12:51:35.967Z,19.40
2022-10-14T12:54:45.864Z,19.30
2022-10-14T12:57:58.410Z,19.40
2022-10-14T13:01:07.009Z,19.40
2022-10-14T13:04:20.059Z,19.10
2022-10-14T13:07:41.771Z,19.10
2022-10-14T13:10:48.818Z,19.00
2022-10-14T13:13:58.225Z,19.10
2022-10-14T13:17:01.401Z,19.10
2022-10-14T13:20:04.518Z,19.20
2022-10-14T13:23:40.858Z,19.20
2022-10-14T13:27:06.636Z,19.20
2022-10-14T13:30:17.963Z,19.20
2022-10-14T13:33:43.374Z,19.20
2022-10-14T13:37:01.958Z,19.20
2022-10-14T13:40:19.965Z,19.10
2022-10-14T13:43:28.134Z,18.60
2022-10-14T13:46:49.816Z,18.50
2022-10-14T13:49:51.794Z,18.50
2022-10-14T13:52:59.276Z,18.00
2022-10-14T13:56:00.961Z,18.00
2022-10-14T13:59:07.976Z,18.10
2022-10-14T14:02:25.277Z,18.10
2022-10-14T14:05:36.444Z,18.10
2022-10-14T14:08:49.692Z,17.90
2022-10-14T14:11:54.804Z,17.70
2022-10-14T14:14:59.546Z,17.50
2022-10-14T14:18:01.340Z,17.50
2022-10-14T14:21:03.880Z,17.80
2022-10-14T14:24:16.569Z,17.50
2022-10-14T14:27:24.137Z,17.80
2022-10-14T14:30:31.991Z,17.90
2022-10-14T14:33:35.990Z,17.90
2022-10-14T14:36:51.138Z,17.90
2022-10-14T14:39:58.970Z,18.10
2022-10-14T14:43:04.138Z,18.00
2022-10-14T14:46:05.973Z,18.20
2022-10-14T14:49:08.955Z,18.00
2022-10-14T14:52:13.562Z,17.80
2022-10-14T14:55:53.697Z,17.50
2022-10-14T14:59:00.126Z,17.30
2022-10-14T15:02:04.623Z,17.50
2022-10-14T15:05:09.289Z,17.50
2022-10-14T15:08:22.802Z,17.60
2022-10-14T15:11:24.947Z,17.60
2022-10-14T15:14:32.711Z,17.40
2022-10-14T15:17:35.701Z,17.50
2022-10-14T15:20:37.747Z,17.30
2022-10-14T15:23:56.183Z,17.40
2022-10-14T15:26:57.845Z,17.60
2022-10-14T15:30:23.402Z,17.60
2022-10-14T15:33:26.787Z,17.70
2022-10-14T15:36:30.789Z,17.50
2022-10-14T15:39:32.511Z,17.40
2022-10-14T15:42:34.156Z,17.10
2022-10-14T15:45:37.188Z,17.00
2022-10-14T15:48:41.654Z,17.10
2022-10-14T15:51:43.379Z,17.10
2022-10-14T15:54:45.876Z,17.00
2022-10-14T15:57:49.859Z,16.90
